Mongagua, Brazil
Current Conditions -  °F | °C
As of 7:00 PM on Monday 20 Oct 2014 (Local Time) from SBST Reporting Station
Overcast Overcast  
Wind Chill: 72°   Ceiling: 2000
Heat Index: 72°   Visibility: 4mi
Dew Point: 68°   Wind: 6mph
Humidity: 88%   Direction: 190°S
Pressure: 30.06"   Gusts: NA
Location:  24.1°S, 46.64°W
Report Text: SBST 202200Z 19005KT 6000 OVC020 22/20 Q1018
Loading
Personal Weather Stations






























Interactive Weather Map
Tropical Storm Tracking
New forecast layout! Learn more

10-Day Weather Forecast

Advertisements
Track Severe Weather on mobile